sensor_id;sensor_type;location;lat;lon;timestamp;P1;durP1;ratioP1;P2;durP2;ratioP2
18259;SDS011;9256;52.236;5.712;2024-02-14T00:01:21;11.30;;;6.28;;
18259;SDS011;9256;52.236;5.712;2024-02-14T00:03:48;12.35;;;6.40;;
18259;SDS011;9256;52.236;5.712;2024-02-14T00:06:16;11.48;;;5.85;;
18259;SDS011;9256;52.236;5.712;2024-02-14T00:08:48;12.23;;;6.63;;
18259;SDS011;9256;52.236;5.712;2024-02-14T00:11:15;10.45;;;6.20;;
18259;SDS011;9256;52.236;5.712;2024-02-14T00:13:47;14.75;;;6.75;;
18259;SDS011;9256;52.236;5.712;2024-02-14T00:16:15;11.57;;;6.35;;
18259;SDS011;9256;52.236;5.712;2024-02-14T00:18:45;12.60;;;6.40;;
18259;SDS011;9256;52.236;5.712;2024-02-14T00:21:23;12.70;;;6.50;;
18259;SDS011;9256;52.236;5.712;2024-02-14T00:23:50;12.77;;;6.50;;
18259;SDS011;9256;52.236;5.712;2024-02-14T00:26:26;12.65;;;6.35;;
18259;SDS011;9256;52.236;5.712;2024-02-14T00:28:55;14.70;;;8.07;;
18259;SDS011;9256;52.236;5.712;2024-02-14T00:31:22;12.65;;;7.20;;
18259;SDS011;9256;52.236;5.712;2024-02-14T00:33:50;10.88;;;6.22;;
18259;SDS011;9256;52.236;5.712;2024-02-14T00:36:18;12.65;;;7.00;;
18259;SDS011;9256;52.236;5.712;2024-02-14T00:38:48;11.90;;;6.65;;
18259;SDS011;9256;52.236;5.712;2024-02-14T00:41:15;13.43;;;7.30;;
18259;SDS011;9256;52.236;5.712;2024-02-14T00:43:42;10.85;;;6.35;;
18259;SDS011;9256;52.236;5.712;2024-02-14T00:46:14;11.38;;;6.68;;
18259;SDS011;9256;52.236;5.712;2024-02-14T00:48:42;11.80;;;6.47;;
18259;SDS011;9256;52.236;5.712;2024-02-14T00:51:11;10.25;;;6.22;;
18259;SDS011;9256;52.236;5.712;2024-02-14T00:53:38;11.65;;;6.80;;
18259;SDS011;9256;52.236;5.712;2024-02-14T00:56:07;12.07;;;6.55;;
18259;SDS011;9256;52.236;5.712;2024-02-14T00:58:39;11.82;;;6.43;;
18259;SDS011;9256;52.236;5.712;2024-02-14T01:01:06;11.35;;;6.47;;
18259;SDS011;9256;52.236;5.712;2024-02-14T01:03:34;11.63;;;6.88;;
18259;SDS011;9256;52.236;5.712;2024-02-14T01:06:01;11.90;;;6.63;;
18259;SDS011;9256;52.236;5.712;2024-02-14T01:08:34;11.63;;;6.70;;
18259;SDS011;9256;52.236;5.712;2024-02-14T01:11:01;13.15;;;7.25;;
18259;SDS011;9256;52.236;5.712;2024-02-14T01:13:29;13.63;;;7.00;;
18259;SDS011;9256;52.236;5.712;2024-02-14T01:16:04;14.57;;;8.07;;
18259;SDS011;9256;52.236;5.712;2024-02-14T01:18:37;14.55;;;7.78;;
18259;SDS011;9256;52.236;5.712;2024-02-14T01:21:09;16.58;;;7.80;;
18259;SDS011;9256;52.236;5.712;2024-02-14T01:23:36;16.23;;;8.65;;
18259;SDS011;9256;52.236;5.712;2024-02-14T01:26:05;16.70;;;8.80;;
18259;SDS011;9256;52.236;5.712;2024-02-14T01:28:35;15.90;;;8.88;;
18259;SDS011;9256;52.236;5.712;2024-02-14T01:31:05;17.63;;;9.80;;
18259;SDS011;9256;52.236;5.712;2024-02-14T01:33:51;18.17;;;9.98;;
18259;SDS011;9256;52.236;5.712;2024-02-14T01:36:19;21.15;;;10.00;;
18259;SDS011;9256;52.236;5.712;2024-02-14T01:38:56;21.20;;;10.52;;
18259;SDS011;9256;52.236;5.712;2024-02-14T01:41:33;21.43;;;11.13;;
18259;SDS011;9256;52.236;5.712;2024-02-14T01:44:06;23.65;;;11.15;;
18259;SDS011;9256;52.236;5.712;2024-02-14T01:46:36;25.80;;;11.45;;
18259;SDS011;9256;52.236;5.712;2024-02-14T01:49:05;24.35;;;11.85;;
18259;SDS011;9256;52.236;5.712;2024-02-14T01:51:34;21.38;;;11.15;;
18259;SDS011;9256;52.236;5.712;2024-02-14T01:54:03;23.45;;;11.65;;
18259;SDS011;9256;52.236;5.712;2024-02-14T01:56:31;27.17;;;15.57;;
18259;SDS011;9256;52.236;5.712;2024-02-14T01:58:59;27.13;;;13.32;;
18259;SDS011;9256;52.236;5.712;2024-02-14T02:01:29;24.45;;;12.13;;
18259;SDS011;9256;52.236;5.712;2024-02-14T02:04:07;28.02;;;13.00;;
18259;SDS011;9256;52.236;5.712;2024-02-14T02:06:38;26.05;;;12.40;;
18259;SDS011;9256;52.236;5.712;2024-02-14T02:09:08;25.35;;;12.75;;
18259;SDS011;9256;52.236;5.712;2024-02-14T02:11:45;26.80;;;12.65;;
18259;SDS011;9256;52.236;5.712;2024-02-14T02:14:26;25.42;;;12.32;;
18259;SDS011;9256;52.236;5.712;2024-02-14T02:16:54;27.02;;;12.98;;
18259;SDS011;9256;52.236;5.712;2024-02-14T02:19:23;25.10;;;13.27;;
18259;SDS011;9256;52.236;5.712;2024-02-14T02:21:52;25.50;;;12.95;;
18259;SDS011;9256;52.236;5.712;2024-02-14T02:24:22;25.83;;;12.68;;
18259;SDS011;9256;52.236;5.712;2024-02-14T02:26:52;26.92;;;12.77;;
18259;SDS011;9256;52.236;5.712;2024-02-14T02:29:37;24.98;;;12.73;;
18259;SDS011;9256;52.236;5.712;2024-02-14T02:32:06;25.35;;;11.80;;
18259;SDS011;9256;52.236;5.712;2024-02-14T02:34:36;25.17;;;13.00;;
18259;SDS011;9256;52.236;5.712;2024-02-14T02:37:05;24.25;;;12.20;;
18259;SDS011;9256;52.236;5.712;2024-02-14T02:39:37;26.70;;;12.98;;
18259;SDS011;9256;52.236;5.712;2024-02-14T02:42:08;23.25;;;11.93;;
18259;SDS011;9256;52.236;5.712;2024-02-14T02:44:41;25.38;;;12.40;;
18259;SDS011;9256;52.236;5.712;2024-02-14T02:47:11;24.23;;;12.27;;
18259;SDS011;9256;52.236;5.712;2024-02-14T02:49:38;24.67;;;12.35;;
18259;SDS011;9256;52.236;5.712;2024-02-14T02:52:06;25.23;;;11.90;;
18259;SDS011;9256;52.236;5.712;2024-02-14T02:54:41;23.38;;;12.18;;
18259;SDS011;9256;52.236;5.712;2024-02-14T02:57:13;25.48;;;12.07;;
18259;SDS011;9256;52.236;5.712;2024-02-14T02:59:40;25.00;;;12.15;;
18259;SDS011;9256;52.236;5.712;2024-02-14T03:02:13;24.13;;;10.82;;
18259;SDS011;9256;52.236;5.712;2024-02-14T03:04:40;25.92;;;12.40;;
18259;SDS011;9256;52.236;5.712;2024-02-14T03:07:09;23.92;;;12.35;;
18259;SDS011;9256;52.236;5.712;2024-02-14T03:09:38;22.52;;;12.00;;
18259;SDS011;9256;52.236;5.712;2024-02-14T03:12:05;23.02;;;11.52;;
18259;SDS011;9256;52.236;5.712;2024-02-14T03:14:36;25.25;;;12.23;;
18259;SDS011;9256;52.236;5.712;2024-02-14T03:17:09;25.20;;;11.90;;
18259;SDS011;9256;52.236;5.712;2024-02-14T03:19:36;25.05;;;11.65;;
18259;SDS011;9256;52.236;5.712;2024-02-14T03:22:08;26.95;;;12.48;;
18259;SDS011;9256;52.236;5.712;2024-02-14T03:24:40;28.02;;;16.48;;
18259;SDS011;9256;52.236;5.712;2024-02-14T03:27:11;24.05;;;12.82;;
18259;SDS011;9256;52.236;5.712;2024-02-14T03:29:49;26.08;;;12.20;;
18259;SDS011;9256;52.236;5.712;2024-02-14T03:32:21;26.25;;;12.48;;
18259;SDS011;9256;52.236;5.712;2024-02-14T03:34:53;24.38;;;12.07;;
18259;SDS011;9256;52.236;5.712;2024-02-14T03:37:20;25.05;;;11.95;;
18259;SDS011;9256;52.236;5.712;2024-02-14T03:39:56;24.55;;;12.13;;
18259;SDS011;9256;52.236;5.712;2024-02-14T03:42:23;24.73;;;11.65;;
18259;SDS011;9256;52.236;5.712;2024-02-14T03:44:52;26.00;;;12.07;;
18259;SDS011;9256;52.236;5.712;2024-02-14T03:47:25;23.75;;;11.85;;
18259;SDS011;9256;52.236;5.712;2024-02-14T03:49:56;24.02;;;11.48;;
18259;SDS011;9256;52.236;5.712;2024-02-14T03:52:30;26.02;;;12.55;;
18259;SDS011;9256;52.236;5.712;2024-02-14T03:54:59;27.00;;;12.35;;
18259;SDS011;9256;52.236;5.712;2024-02-14T03:57:27;31.58;;;17.73;;
18259;SDS011;9256;52.236;5.712;2024-02-14T03:59:54;33.50;;;15.00;;
18259;SDS011;9256;52.236;5.712;2024-02-14T04:02:28;34.95;;;16.25;;
18259;SDS011;9256;52.236;5.712;2024-02-14T04:05:06;32.83;;;15.27;;
18259;SDS011;9256;52.236;5.712;2024-02-14T04:07:34;34.95;;;15.80;;
18259;SDS011;9256;52.236;5.712;2024-02-14T04:10:04;39.22;;;16.73;;
18259;SDS011;9256;52.236;5.712;2024-02-14T04:12:34;35.40;;;15.27;;
18259;SDS011;9256;52.236;5.712;2024-02-14T04:15:01;36.90;;;16.17;;
18259;SDS011;9256;52.236;5.712;2024-02-14T04:17:28;36.85;;;15.90;;
18259;SDS011;9256;52.236;5.712;2024-02-14T04:19:59;36.08;;;16.05;;
18259;SDS011;9256;52.236;5.712;2024-02-14T04:22:29;39.10;;;16.50;;
18259;SDS011;9256;52.236;5.712;2024-02-14T04:25:01;39.08;;;16.65;;
18259;SDS011;9256;52.236;5.712;2024-02-14T04:27:38;36.42;;;16.42;;
18259;SDS011;9256;52.236;5.712;2024-02-14T04:30:14;41.05;;;16.73;;
18259;SDS011;9256;52.236;5.712;2024-02-14T04:32:44;47.00;;;17.70;;
18259;SDS011;9256;52.236;5.712;2024-02-14T04:35:19;42.53;;;17.00;;
18259;SDS011;9256;52.236;5.712;2024-02-14T04:37:46;50.75;;;23.33;;
18259;SDS011;9256;52.236;5.712;2024-02-14T04:40:19;47.95;;;19.58;;
18259;SDS011;9256;52.236;5.712;2024-02-14T04:42:47;44.80;;;17.98;;
18259;SDS011;9256;52.236;5.712;2024-02-14T04:45:15;54.20;;;17.98;;
18259;SDS011;9256;52.236;5.712;2024-02-14T04:47:45;46.25;;;18.20;;
18259;SDS011;9256;52.236;5.712;2024-02-14T04:50:14;52.45;;;20.17;;
18259;SDS011;9256;52.236;5.712;2024-02-14T04:52:50;51.65;;;19.00;;
18259;SDS011;9256;52.236;5.712;2024-02-14T04:55:20;53.05;;;19.13;;
18259;SDS011;9256;52.236;5.712;2024-02-14T04:57:47;55.40;;;19.80;;
18259;SDS011;9256;52.236;5.712;2024-02-14T05:00:16;47.05;;;18.42;;
18259;SDS011;9256;52.236;5.712;2024-02-14T05:02:53;47.72;;;19.50;;
18259;SDS011;9256;52.236;5.712;2024-02-14T05:05:24;51.97;;;18.50;;
18259;SDS011;9256;52.236;5.712;2024-02-14T05:07:54;47.22;;;16.65;;
18259;SDS011;9256;52.236;5.712;2024-02-14T05:10:29;49.83;;;17.75;;
18259;SDS011;9256;52.236;5.712;2024-02-14T05:12:56;42.17;;;16.38;;
18259;SDS011;9256;52.236;5.712;2024-02-14T05:15:23;49.80;;;18.27;;
18259;SDS011;9256;52.236;5.712;2024-02-14T05:17:55;48.88;;;18.23;;
18259;SDS011;9256;52.236;5.712;2024-02-14T05:20:24;49.95;;;18.50;;
18259;SDS011;9256;52.236;5.712;2024-02-14T05:23:02;44.63;;;17.25;;
18259;SDS011;9256;52.236;5.712;2024-02-14T05:25:32;51.53;;;19.42;;
18259;SDS011;9256;52.236;5.712;2024-02-14T05:28:00;56.25;;;19.05;;
18259;SDS011;9256;52.236;5.712;2024-02-14T05:30:34;57.72;;;20.25;;
18259;SDS011;9256;52.236;5.712;2024-02-14T05:35:47;61.55;;;21.80;;
18259;SDS011;9256;52.236;5.712;2024-02-14T05:38:14;55.38;;;20.70;;
18259;SDS011;9256;52.236;5.712;2024-02-14T05:40:50;59.28;;;21.77;;
18259;SDS011;9256;52.236;5.712;2024-02-14T05:43:25;57.88;;;21.73;;
18259;SDS011;9256;52.236;5.712;2024-02-14T05:45:53;63.33;;;22.33;;
18259;SDS011;9256;52.236;5.712;2024-02-14T05:48:24;60.47;;;22.23;;
18259;SDS011;9256;52.236;5.712;2024-02-14T05:50:56;63.78;;;21.83;;
18259;SDS011;9256;52.236;5.712;2024-02-14T05:53:24;61.25;;;20.75;;
18259;SDS011;9256;52.236;5.712;2024-02-14T05:55:54;56.63;;;21.00;;
18259;SDS011;9256;52.236;5.712;2024-02-14T05:58:26;57.55;;;21.08;;
18259;SDS011;9256;52.236;5.712;2024-02-14T06:00:55;60.45;;;20.48;;
18259;SDS011;9256;52.236;5.712;2024-02-14T06:03:25;64.80;;;24.00;;
18259;SDS011;9256;52.236;5.712;2024-02-14T06:06:04;53.78;;;22.27;;
18259;SDS011;9256;52.236;5.712;2024-02-14T06:08:39;58.72;;;20.67;;
18259;SDS011;9256;52.236;5.712;2024-02-14T06:11:11;50.38;;;20.63;;
18259;SDS011;9256;52.236;5.712;2024-02-14T06:13:43;56.33;;;20.27;;
18259;SDS011;9256;52.236;5.712;2024-02-14T06:16:15;54.15;;;20.70;;
18259;SDS011;9256;52.236;5.712;2024-02-14T06:18:44;60.88;;;25.42;;
18259;SDS011;9256;52.236;5.712;2024-02-14T06:21:11;58.90;;;26.20;;
18259;SDS011;9256;52.236;5.712;2024-02-14T06:23:38;48.90;;;19.65;;
18259;SDS011;9256;52.236;5.712;2024-02-14T06:26:05;43.33;;;18.23;;
18259;SDS011;9256;52.236;5.712;2024-02-14T06:28:36;45.70;;;17.35;;
18259;SDS011;9256;52.236;5.712;2024-02-14T06:31:03;49.78;;;18.00;;
18259;SDS011;9256;52.236;5.712;2024-02-14T06:33:32;36.75;;;15.85;;
18259;SDS011;9256;52.236;5.712;2024-02-14T06:35:59;41.22;;;15.23;;
18259;SDS011;9256;52.236;5.712;2024-02-14T06:38:32;37.10;;;14.93;;
18259;SDS011;9256;52.236;5.712;2024-02-14T06:41:01;38.65;;;15.43;;
18259;SDS011;9256;52.236;5.712;2024-02-14T06:43:28;37.75;;;14.93;;
18259;SDS011;9256;52.236;5.712;2024-02-14T06:46:10;36.88;;;14.52;;
18259;SDS011;9256;52.236;5.712;2024-02-14T06:48:40;34.50;;;14.55;;
18259;SDS011;9256;52.236;5.712;2024-02-14T06:51:07;31.20;;;13.68;;
18259;SDS011;9256;52.236;5.712;2024-02-14T06:53:34;32.97;;;13.82;;
18259;SDS011;9256;52.236;5.712;2024-02-14T06:56:06;32.85;;;13.75;;
18259;SDS011;9256;52.236;5.712;2024-02-14T06:58:35;30.50;;;13.32;;
18259;SDS011;9256;52.236;5.712;2024-02-14T07:01:05;32.65;;;13.57;;
18259;SDS011;9256;52.236;5.712;2024-02-14T07:03:37;30.10;;;12.43;;
18259;SDS011;9256;52.236;5.712;2024-02-14T07:06:11;31.48;;;12.77;;
18259;SDS011;9256;52.236;5.712;2024-02-14T07:08:46;29.92;;;12.63;;
18259;SDS011;9256;52.236;5.712;2024-02-14T07:11:19;29.98;;;12.30;;
18259;SDS011;9256;52.236;5.712;2024-02-14T07:13:51;28.27;;;12.18;;
18259;SDS011;9256;52.236;5.712;2024-02-14T07:16:23;30.83;;;12.60;;
18259;SDS011;9256;52.236;5.712;2024-02-14T07:18:52;30.70;;;12.40;;
18259;SDS011;9256;52.236;5.712;2024-02-14T07:21:21;36.10;;;14.65;;
18259;SDS011;9256;52.236;5.712;2024-02-14T07:23:49;53.40;;;18.20;;
18259;SDS011;9256;52.236;5.712;2024-02-14T07:26:20;33.03;;;14.20;;
18259;SDS011;9256;52.236;5.712;2024-02-14T07:28:47;37.67;;;14.18;;
18259;SDS011;9256;52.236;5.712;2024-02-14T07:31:28;44.17;;;20.15;;
18259;SDS011;9256;52.236;5.712;2024-02-14T07:34:03;40.42;;;16.42;;
18259;SDS011;9256;52.236;5.712;2024-02-14T07:36:34;39.35;;;15.80;;
18259;SDS011;9256;52.236;5.712;2024-02-14T07:39:08;40.60;;;15.48;;
18259;SDS011;9256;52.236;5.712;2024-02-14T07:41:40;37.72;;;15.30;;
18259;SDS011;9256;52.236;5.712;2024-02-14T07:44:07;39.05;;;15.55;;
18259;SDS011;9256;52.236;5.712;2024-02-14T07:46:50;39.25;;;15.40;;
18259;SDS011;9256;52.236;5.712;2024-02-14T07:49:17;41.05;;;16.05;;
18259;SDS011;9256;52.236;5.712;2024-02-14T07:51:48;42.55;;;16.52;;
18259;SDS011;9256;52.236;5.712;2024-02-14T07:54:15;45.80;;;17.15;;
18259;SDS011;9256;52.236;5.712;2024-02-14T07:56:44;46.20;;;17.40;;
18259;SDS011;9256;52.236;5.712;2024-02-14T07:59:13;47.80;;;17.80;;
18259;SDS011;9256;52.236;5.712;2024-02-14T08:01:46;47.60;;;17.95;;
18259;SDS011;9256;52.236;5.712;2024-02-14T08:04:15;48.83;;;18.15;;
18259;SDS011;9256;52.236;5.712;2024-02-14T08:06:46;50.08;;;17.60;;
18259;SDS011;9256;52.236;5.712;2024-02-14T08:09:14;48.25;;;18.40;;
18259;SDS011;9256;52.236;5.712;2024-02-14T08:11:47;49.70;;;18.70;;
18259;SDS011;9256;52.236;5.712;2024-02-14T08:14:20;48.33;;;17.90;;
18259;SDS011;9256;52.236;5.712;2024-02-14T08:16:52;47.92;;;18.85;;
18259;SDS011;9256;52.236;5.712;2024-02-14T08:19:19;45.45;;;18.52;;
18259;SDS011;9256;52.236;5.712;2024-02-14T08:21:50;50.22;;;18.95;;
18259;SDS011;9256;52.236;5.712;2024-02-14T08:24:25;51.50;;;19.50;;
18259;SDS011;9256;52.236;5.712;2024-02-14T08:26:54;51.47;;;19.33;;
18259;SDS011;9256;52.236;5.712;2024-02-14T08:29:23;53.15;;;19.92;;
18259;SDS011;9256;52.236;5.712;2024-02-14T08:31:52;45.13;;;19.23;;
18259;SDS011;9256;52.236;5.712;2024-02-14T08:34:22;56.17;;;21.55;;
18259;SDS011;9256;52.236;5.712;2024-02-14T08:37:01;51.95;;;19.80;;
18259;SDS011;9256;52.236;5.712;2024-02-14T08:39:33;51.50;;;19.83;;
18259;SDS011;9256;52.236;5.712;2024-02-14T08:42:02;50.20;;;20.17;;
18259;SDS011;9256;52.236;5.712;2024-02-14T08:44:34;54.17;;;25.27;;
18259;SDS011;9256;52.236;5.712;2024-02-14T08:47:11;48.22;;;20.13;;
18259;SDS011;9256;52.236;5.712;2024-02-14T08:49:40;50.53;;;19.40;;
18259;SDS011;9256;52.236;5.712;2024-02-14T08:52:09;47.97;;;18.55;;
18259;SDS011;9256;52.236;5.712;2024-02-14T08:54:38;43.03;;;17.83;;
18259;SDS011;9256;52.236;5.712;2024-02-14T08:57:08;50.33;;;21.85;;
18259;SDS011;9256;52.236;5.712;2024-02-14T08:59:35;43.55;;;18.17;;
18259;SDS011;9256;52.236;5.712;2024-02-14T09:02:09;47.08;;;18.90;;
18259;SDS011;9256;52.236;5.712;2024-02-14T09:04:36;47.55;;;18.83;;
18259;SDS011;9256;52.236;5.712;2024-02-14T09:07:03;50.47;;;20.33;;
18259;SDS011;9256;52.236;5.712;2024-02-14T09:09:31;53.58;;;20.20;;
18259;SDS011;9256;52.236;5.712;2024-02-14T09:12:01;57.27;;;24.63;;
18259;SDS011;9256;52.236;5.712;2024-02-14T09:14:28;57.55;;;21.45;;
18259;SDS011;9256;52.236;5.712;2024-02-14T09:16:56;53.15;;;21.50;;
18259;SDS011;9256;52.236;5.712;2024-02-14T09:19:28;51.70;;;20.70;;
18259;SDS011;9256;52.236;5.712;2024-02-14T09:21:55;49.42;;;20.42;;
18259;SDS011;9256;52.236;5.712;2024-02-14T09:24:25;52.88;;;20.77;;
18259;SDS011;9256;52.236;5.712;2024-02-14T09:26:54;48.63;;;19.67;;
18259;SDS011;9256;52.236;5.712;2024-02-14T09:29:22;49.28;;;20.05;;
18259;SDS011;9256;52.236;5.712;2024-02-14T09:31:53;50.70;;;19.85;;
18259;SDS011;9256;52.236;5.712;2024-02-14T09:34:20;47.55;;;18.58;;
18259;SDS011;9256;52.236;5.712;2024-02-14T09:36:54;43.30;;;17.65;;
18259;SDS011;9256;52.236;5.712;2024-02-14T09:39:22;42.22;;;17.23;;
18259;SDS011;9256;52.236;5.712;2024-02-14T09:41:51;38.13;;;16.42;;
18259;SDS011;9256;52.236;5.712;2024-02-14T09:44:22;38.13;;;15.25;;
18259;SDS011;9256;52.236;5.712;2024-02-14T09:46:53;34.35;;;14.48;;
18259;SDS011;9256;52.236;5.712;2024-02-14T09:49:23;34.13;;;14.45;;
18259;SDS011;9256;52.236;5.712;2024-02-14T09:51:51;32.15;;;13.55;;
18259;SDS011;9256;52.236;5.712;2024-02-14T09:54:19;30.85;;;13.98;;
18259;SDS011;9256;52.236;5.712;2024-02-14T09:56:47;31.77;;;12.40;;
18259;SDS011;9256;52.236;5.712;2024-02-14T09:59:18;29.75;;;12.52;;
18259;SDS011;9256;52.236;5.712;2024-02-14T10:01:46;28.33;;;12.75;;
18259;SDS011;9256;52.236;5.712;2024-02-14T10:04:16;28.35;;;12.48;;
18259;SDS011;9256;52.236;5.712;2024-02-14T10:06:44;29.23;;;13.80;;
18259;SDS011;9256;52.236;5.712;2024-02-14T10:09:18;35.30;;;13.80;;
18259;SDS011;9256;52.236;5.712;2024-02-14T10:11:46;31.98;;;14.20;;
18259;SDS011;9256;52.236;5.712;2024-02-14T10:14:13;30.48;;;13.30;;
18259;SDS011;9256;52.236;5.712;2024-02-14T10:16:41;29.42;;;13.15;;
18259;SDS011;9256;52.236;5.712;2024-02-14T10:19:14;31.55;;;13.52;;
18259;SDS011;9256;52.236;5.712;2024-02-14T10:21:41;30.23;;;12.65;;
18259;SDS011;9256;52.236;5.712;2024-02-14T10:24:08;35.28;;;17.52;;
18259;SDS011;9256;52.236;5.712;2024-02-14T10:26:37;32.53;;;15.10;;
18259;SDS011;9256;52.236;5.712;2024-02-14T10:29:05;41.15;;;17.63;;
18259;SDS011;9256;52.236;5.712;2024-02-14T10:31:38;47.78;;;22.02;;
18259;SDS011;9256;52.236;5.712;2024-02-14T10:34:06;48.75;;;19.83;;
18259;SDS011;9256;52.236;5.712;2024-02-14T10:36:35;41.97;;;18.80;;
18259;SDS011;9256;52.236;5.712;2024-02-14T10:39:06;51.55;;;24.52;;
18259;SDS011;9256;52.236;5.712;2024-02-14T10:41:37;42.72;;;20.05;;
18259;SDS011;9256;52.236;5.712;2024-02-14T10:44:04;44.60;;;19.17;;
18259;SDS011;9256;52.236;5.712;2024-02-14T10:46:32;44.70;;;19.05;;
18259;SDS011;9256;52.236;5.712;2024-02-14T10:49:04;42.42;;;19.25;;
18259;SDS011;9256;52.236;5.712;2024-02-14T10:51:33;43.42;;;19.52;;
18259;SDS011;9256;52.236;5.712;2024-02-14T10:54:04;54.55;;;21.40;;
18259;SDS011;9256;52.236;5.712;2024-02-14T10:56:37;47.78;;;19.33;;
18259;SDS011;9256;52.236;5.712;2024-02-14T10:59:07;42.88;;;18.25;;
18259;SDS011;9256;52.236;5.712;2024-02-14T11:01:36;38.65;;;17.60;;
18259;SDS011;9256;52.236;5.712;2024-02-14T11:04:04;42.45;;;18.15;;
18259;SDS011;9256;52.236;5.712;2024-02-14T11:06:32;40.03;;;17.80;;
18259;SDS011;9256;52.236;5.712;2024-02-14T11:09:11;42.15;;;17.33;;
18259;SDS011;9256;52.236;5.712;2024-02-14T11:11:41;40.35;;;17.75;;
18259;SDS011;9256;52.236;5.712;2024-02-14T11:14:09;34.95;;;16.98;;
18259;SDS011;9256;52.236;5.712;2024-02-14T11:16:37;39.40;;;17.48;;
18259;SDS011;9256;52.236;5.712;2024-02-14T11:19:05;39.92;;;17.00;;
18259;SDS011;9256;52.236;5.712;2024-02-14T11:21:35;36.47;;;17.05;;
18259;SDS011;9256;52.236;5.712;2024-02-14T11:24:10;44.78;;;18.25;;
18259;SDS011;9256;52.236;5.712;2024-02-14T11:27:03;40.05;;;16.98;;
18259;SDS011;9256;52.236;5.712;2024-02-14T11:29:39;36.05;;;16.55;;
18259;SDS011;9256;52.236;5.712;2024-02-14T11:32:07;37.30;;;16.48;;
18259;SDS011;9256;52.236;5.712;2024-02-14T11:34:35;38.10;;;16.98;;
18259;SDS011;9256;52.236;5.712;2024-02-14T11:37:02;34.53;;;16.13;;
18259;SDS011;9256;52.236;5.712;2024-02-14T11:39:30;34.55;;;16.33;;
18259;SDS011;9256;52.236;5.712;2024-02-14T11:42:16;32.88;;;15.63;;
18259;SDS011;9256;52.236;5.712;2024-02-14T11:44:45;30.55;;;15.02;;
18259;SDS011;9256;52.236;5.712;2024-02-14T11:47:12;30.98;;;15.30;;
18259;SDS011;9256;52.236;5.712;2024-02-14T11:49:39;30.15;;;14.70;;
18259;SDS011;9256;52.236;5.712;2024-02-14T11:52:09;29.30;;;13.07;;
18259;SDS011;9256;52.236;5.712;2024-02-14T11:54:39;30.23;;;15.88;;
18259;SDS011;9256;52.236;5.712;2024-02-14T11:57:06;29.60;;;13.73;;
18259;SDS011;9256;52.236;5.712;2024-02-14T11:59:35;27.65;;;13.85;;
18259;SDS011;9256;52.236;5.712;2024-02-14T12:02:02;28.05;;;14.02;;
18259;SDS011;9256;52.236;5.712;2024-02-14T12:04:30;29.98;;;17.17;;
18259;SDS011;9256;52.236;5.712;2024-02-14T12:07:01;24.88;;;13.57;;
18259;SDS011;9256;52.236;5.712;2024-02-14T12:09:30;25.25;;;12.45;;
18259;SDS011;9256;52.236;5.712;2024-02-14T12:11:59;26.20;;;13.18;;
18259;SDS011;9256;52.236;5.712;2024-02-14T12:14:34;26.13;;;12.57;;
18259;SDS011;9256;52.236;5.712;2024-02-14T12:17:15;27.63;;;13.32;;
18259;SDS011;9256;52.236;5.712;2024-02-14T12:19:46;45.15;;;18.40;;
18259;SDS011;9256;52.236;5.712;2024-02-14T12:22:15;126.65;;;42.15;;
18259;SDS011;9256;52.236;5.712;2024-02-14T12:24:44;58.78;;;21.48;;
18259;SDS011;9256;52.236;5.712;2024-02-14T12:27:16;26.63;;;12.80;;
18259;SDS011;9256;52.236;5.712;2024-02-14T12:29:50;27.80;;;13.00;;
18259;SDS011;9256;52.236;5.712;2024-02-14T12:32:17;30.02;;;13.10;;
18259;SDS011;9256;52.236;5.712;2024-02-14T12:34:44;25.77;;;12.35;;
18259;SDS011;9256;52.236;5.712;2024-02-14T12:37:12;25.33;;;11.75;;
18259;SDS011;9256;52.236;5.712;2024-02-14T12:39:40;26.83;;;12.05;;
18259;SDS011;9256;52.236;5.712;2024-02-14T12:42:07;24.67;;;11.65;;
18259;SDS011;9256;52.236;5.712;2024-02-14T12:44:34;23.23;;;11.20;;
18259;SDS011;9256;52.236;5.712;2024-02-14T12:47:16;23.90;;;11.38;;
18259;SDS011;9256;52.236;5.712;2024-02-14T12:49:46;23.92;;;10.93;;
18259;SDS011;9256;52.236;5.712;2024-02-14T12:52:14;21.27;;;10.30;;
18259;SDS011;9256;52.236;5.712;2024-02-14T12:54:42;19.08;;;10.05;;
18259;SDS011;9256;52.236;5.712;2024-02-14T12:57:14;20.25;;;9.93;;
18259;SDS011;9256;52.236;5.712;2024-02-14T12:59:52;21.88;;;10.18;;
18259;SDS011;9256;52.236;5.712;2024-02-14T13:02:27;19.85;;;9.48;;
18259;SDS011;9256;52.236;5.712;2024-02-14T13:04:56;20.13;;;9.30;;
18259;SDS011;9256;52.236;5.712;2024-02-14T13:07:34;19.58;;;9.32;;
18259;SDS011;9256;52.236;5.712;2024-02-14T13:10:03;16.98;;;9.15;;
18259;SDS011;9256;52.236;5.712;2024-02-14T13:12:37;18.63;;;9.02;;
18259;SDS011;9256;52.236;5.712;2024-02-14T13:15:10;22.57;;;12.13;;
18259;SDS011;9256;52.236;5.712;2024-02-14T13:17:42;33.72;;;14.77;;
18259;SDS011;9256;52.236;5.712;2024-02-14T13:20:12;56.58;;;21.27;;
18259;SDS011;9256;52.236;5.712;2024-02-14T13:22:40;24.80;;;10.52;;
18259;SDS011;9256;52.236;5.712;2024-02-14T13:25:13;20.13;;;9.27;;
18259;SDS011;9256;52.236;5.712;2024-02-14T13:27:42;14.77;;;7.80;;
18259;SDS011;9256;52.236;5.712;2024-02-14T13:30:13;14.90;;;8.82;;
18259;SDS011;9256;52.236;5.712;2024-02-14T13:32:47;14.05;;;7.43;;
18259;SDS011;9256;52.236;5.712;2024-02-14T13:35:20;15.88;;;7.82;;
18259;SDS011;9256;52.236;5.712;2024-02-14T13:37:48;13.77;;;6.97;;
18259;SDS011;9256;52.236;5.712;2024-02-14T13:40:24;13.05;;;6.88;;
18259;SDS011;9256;52.236;5.712;2024-02-14T13:42:54;12.75;;;6.57;;
18259;SDS011;9256;52.236;5.712;2024-02-14T13:45:30;14.03;;;7.57;;
18259;SDS011;9256;52.236;5.712;2024-02-14T13:48:16;13.83;;;8.00;;
18259;SDS011;9256;52.236;5.712;2024-02-14T13:50:45;10.50;;;6.40;;
18259;SDS011;9256;52.236;5.712;2024-02-14T13:53:14;12.15;;;7.00;;
18259;SDS011;9256;52.236;5.712;2024-02-14T13:55:42;13.25;;;8.10;;
18259;SDS011;9256;52.236;5.712;2024-02-14T13:58:11;10.60;;;6.47;;
18259;SDS011;9256;52.236;5.712;2024-02-14T14:00:42;11.82;;;6.68;;
18259;SDS011;9256;52.236;5.712;2024-02-14T14:03:09;11.85;;;6.60;;
18259;SDS011;9256;52.236;5.712;2024-02-14T14:05:38;12.88;;;6.28;;
18259;SDS011;9256;52.236;5.712;2024-02-14T14:08:05;11.90;;;6.63;;
18259;SDS011;9256;52.236;5.712;2024-02-14T14:10:32;12.60;;;7.10;;
18259;SDS011;9256;52.236;5.712;2024-02-14T14:13:06;12.07;;;6.72;;
18259;SDS011;9256;52.236;5.712;2024-02-14T14:15:34;12.88;;;7.07;;
18259;SDS011;9256;52.236;5.712;2024-02-14T14:18:04;12.35;;;6.93;;
18259;SDS011;9256;52.236;5.712;2024-02-14T14:20:33;12.50;;;6.80;;
18259;SDS011;9256;52.236;5.712;2024-02-14T14:23:02;12.85;;;7.22;;
18259;SDS011;9256;52.236;5.712;2024-02-14T14:25:29;16.70;;;7.68;;
18259;SDS011;9256;52.236;5.712;2024-02-14T14:27:57;13.25;;;7.40;;
18259;SDS011;9256;52.236;5.712;2024-02-14T14:30:37;15.90;;;7.80;;
18259;SDS011;9256;52.236;5.712;2024-02-14T14:33:04;18.08;;;9.50;;
18259;SDS011;9256;52.236;5.712;2024-02-14T14:35:35;15.05;;;8.48;;
18259;SDS011;9256;52.236;5.712;2024-02-14T14:38:05;14.13;;;7.22;;
18259;SDS011;9256;52.236;5.712;2024-02-14T14:40:32;14.55;;;7.28;;
18259;SDS011;9256;52.236;5.712;2024-02-14T14:42:59;11.63;;;6.80;;
18259;SDS011;9256;52.236;5.712;2024-02-14T14:45:26;14.65;;;7.43;;
18259;SDS011;9256;52.236;5.712;2024-02-14T14:47:59;12.80;;;7.13;;
18259;SDS011;9256;52.236;5.712;2024-02-14T14:50:27;14.77;;;7.55;;
18259;SDS011;9256;52.236;5.712;2024-02-14T14:52:56;15.00;;;8.13;;
18259;SDS011;9256;52.236;5.712;2024-02-14T14:55:50;15.43;;;8.25;;
18259;SDS011;9256;52.236;5.712;2024-02-14T14:58:21;16.20;;;8.55;;
18259;SDS011;9256;52.236;5.712;2024-02-14T15:00:52;16.67;;;8.55;;